Time;durP1;ratioP1;P1;durP2;ratioP2;P2;SDS_P1;SDS_P2;PMS_P1;PMS_P2;Temp;Humidity;BMP_temperature;BMP_pressure;BME280_temperature;BME280_humidity;BME280_pressure;Samples;Min_cycle;Max_cycle;Signal;HPM_P1;HPM_P2
2023/10/19 00:00:25;;;;;;;32.30;19.80;;;;;;;0.38;84.11;100082.48;107416;279;118442;-54
2023/10/19 00:03:23;;;;;;;30.30;18.70;;;;;;;0.39;84.01;100078.34;107513;279;104643;-52
2023/10/19 00:06:02;;;;;;;26.20;18.60;;;;;;;0.39;84.08;100070.72;107443;279;113806;-52
2023/10/19 00:08:42;;;;;;;27.20;18.90;;;;;;;0.37;84.22;100072.33;107447;279;93022;-55
2023/10/19 00:11:24;;;;;;;29.80;19.20;;;;;;;0.36;84.21;100063.39;107502;279;98836;-55
2023/10/19 00:14:02;;;;;;;29.00;19.50;;;;;;;0.37;84.41;100059.08;107493;279;121276;-55
2023/10/19 00:16:44;;;;;;;30.30;19.30;;;;;;;0.37;84.46;100054.61;107517;279;104598;-55
2023/10/19 00:19:22;;;;;;;30.10;18.90;;;;;;;0.37;84.55;100051.66;107619;279;114566;-52
2023/10/19 00:22:08;;;;;;;27.40;18.10;;;;;;;0.35;84.60;100048.05;107606;279;94241;-51
2023/10/19 00:24:50;;;;;;;27.20;18.80;;;;;;;0.35;84.64;100045.04;107567;279;96353;-55
2023/10/19 00:27:28;;;;;;;26.60;19.10;;;;;;;0.39;84.64;100047.94;107583;279;120833;-55
2023/10/19 00:30:10;;;;;;;27.40;18.60;;;;;;;0.41;84.61;100046.30;107530;279;104974;-54
2023/10/19 00:32:48;;;;;;;28.10;18.80;;;;;;;0.44;84.70;100043.23;107555;279;114380;-56
2023/10/19 00:35:34;;;;;;;26.70;18.40;;;;;;;0.46;84.85;100041.29;107550;279;94077;-56
2023/10/19 00:38:27;;;;;;;25.70;17.00;;;;;;;0.46;84.91;100040.87;107573;279;97340;-52
2023/10/19 00:41:06;;;;;;;27.00;18.70;;;;;;;0.45;84.98;100038.12;107530;279;119696;-53
2023/10/19 00:43:44;;;;;;;25.20;17.30;;;;;;;0.45;85.02;100043.65;107384;279;105078;-53
2023/10/19 00:46:21;;;;;;;31.10;19.90;;;;;;;0.46;84.86;100042.30;107541;279;114205;-53
2023/10/19 00:49:08;;;;;;;28.90;19.80;;;;;;;0.47;85.00;100038.16;107554;279;96030;-53
2023/10/19 00:51:54;;;;;;;29.00;18.20;;;;;;;0.46;85.22;100035.61;107536;279;97848;-53
2023/10/19 00:54:36;;;;;;;31.90;17.90;;;;;;;0.43;85.27;100032.02;107450;279;121086;-55
2023/10/19 00:57:12;;;;;;;26.00;18.80;;;;;;;0.39;85.34;100028.58;107394;280;104990;-55
2023/10/19 00:59:55;;;;;;;28.80;19.80;;;;;;;0.43;85.38;100021.48;107439;280;113391;-52
2023/10/19 01:02:31;;;;;;;34.40;23.10;;;;;;;0.47;85.41;100021.14;107411;280;95382;-52
2023/10/19 01:05:08;;;;;;;34.20;24.30;;;;;;;0.47;85.21;100018.72;107509;280;98365;-52
2023/10/19 01:07:46;;;;;;;38.30;23.40;;;;;;;0.40;85.16;100017.02;107480;280;119458;-52
2023/10/19 01:10:35;;;;;;;35.60;22.50;;;;;;;0.32;85.12;100012.00;107470;280;104177;-51
2023/10/19 01:13:12;;;;;;;35.70;23.10;;;;;;;0.30;85.07;100007.23;107432;280;114872;-52
2023/10/19 01:15:52;;;;;;;34.70;24.00;;;;;;;0.26;85.12;100003.86;107447;280;93814;-52
2023/10/19 01:18:32;;;;;;;33.20;21.20;;;;;;;0.23;85.15;99999.52;107492;280;97404;-54
2023/10/19 01:21:11;;;;;;;30.70;21.60;;;;;;;0.20;85.22;99999.85;107437;280;121596;-54
2023/10/19 01:23:52;;;;;;;33.30;21.50;;;;;;;0.18;85.20;100000.91;107421;280;105159;-54
2023/10/19 01:26:37;;;;;;;34.10;22.10;;;;;;;0.19;85.23;100002.41;107421;280;113414;-54
2023/10/19 01:29:26;;;;;;;34.80;22.40;;;;;;;0.23;85.34;99998.32;107420;280;94317;-52
2023/10/19 01:32:08;;;;;;;33.00;20.80;;;;;;;0.24;85.34;99992.77;107444;280;98051;-53
2023/10/19 01:34:46;;;;;;;32.90;22.40;;;;;;;0.27;85.36;99991.77;107504;280;119966;-54
2023/10/19 01:37:29;;;;;;;36.10;23.00;;;;;;;0.24;85.32;99990.95;107427;280;105243;-55
2023/10/19 01:40:06;;;;;;;34.70;22.10;;;;;;;0.21;85.35;99984.30;107481;280;113558;-51
2023/10/19 01:42:45;;;;;;;32.40;21.10;;;;;;;0.22;85.43;99986.21;107508;280;93976;-54
2023/10/19 01:45:25;;;;;;;32.10;21.50;;;;;;;0.23;85.48;99981.46;107478;280;97086;-53
2023/10/19 01:48:07;;;;;;;33.60;21.10;;;;;;;0.23;85.40;99973.48;107496;280;119097;-53
2023/10/19 01:50:47;;;;;;;32.20;20.30;;;;;;;0.21;85.47;99972.98;107543;280;104964;-53
2023/10/19 01:53:25;;;;;;;29.30;20.50;;;;;;;0.20;85.39;99973.48;107419;280;113223;-57
2023/10/19 01:56:05;;;;;;;30.00;20.10;;;;;;;0.15;85.50;99971.61;107392;280;95098;-57
2023/10/19 01:58:48;;;;;;;31.60;20.70;;;;;;;0.09;85.47;99973.92;107479;280;97773;-53
2023/10/19 02:01:29;;;;;;;34.50;21.80;;;;;;;0.06;85.54;99965.48;107423;280;120156;-54
2023/10/19 02:04:09;;;;;;;31.60;20.30;;;;;;;0.08;85.59;99966.05;107425;280;104842;-52
2023/10/19 02:06:50;;;;;;;31.90;20.80;;;;;;;0.09;85.61;99960.75;107416;280;112974;-52
2023/10/19 02:09:33;;;;;;;30.10;19.10;;;;;;;0.10;85.81;99963.89;107367;280;95996;-56
2023/10/19 02:12:10;;;;;;;31.20;19.10;;;;;;;0.10;85.80;99961.38;107377;280;98602;-56
2023/10/19 02:14:48;;;;;;;30.00;18.70;;;;;;;0.12;85.75;99961.06;107448;280;119529;-51
2023/10/19 02:17:29;;;;;;;31.40;20.60;;;;;;;0.13;85.82;99957.09;107395;280;104760;-50
2023/10/19 02:20:24;;;;;;;32.60;19.70;;;;;;;0.11;85.85;99951.81;107429;279;114428;-56
2023/10/19 02:23:03;;;;;;;;;;;;;;;0.08;85.88;99948.52;107490;279;96174;-54
2023/10/19 02:25:43;;;;;;;32.00;20.10;;;;;;;0.05;86.06;99952.10;107525;280;97595;-54
2023/10/19 02:28:29;;;;;;;32.20;19.90;;;;;;;0.02;85.98;99950.08;107488;280;121624;-51
2023/10/19 02:31:15;;;;;;;30.60;20.60;;;;;;;-0.01;86.02;99949.59;107494;280;104610;-51
2023/10/19 02:34:00;;;;;;;26.80;18.60;;;;;;;-0.02;86.09;99944.95;107491;280;114223;-54
2023/10/19 02:36:44;;;;;;;27.80;20.00;;;;;;;-0.01;86.10;99939.36;107486;280;95442;-54
2023/10/19 02:39:28;;;;;;;30.60;18.80;;;;;;;0.00;86.11;99934.64;107476;280;97267;-52
2023/10/19 02:42:12;;;;;;;32.90;20.40;;;;;;;0.01;86.15;99931.36;107480;280;119486;-53
2023/10/19 02:44:53;;;;;;;30.30;19.70;;;;;;;0.01;86.13;99933.91;107448;280;104117;-51
2023/10/19 02:47:35;;;;;;;33.20;20.40;;;;;;;-0.00;86.23;99934.33;107503;280;114818;-52
2023/10/19 02:50:22;;;;;;;28.40;18.90;;;;;;;-0.02;86.20;99931.84;106978;280;554226;-52
2023/10/19 02:53:05;;;;;;;29.90;19.60;;;;;;;-0.04;86.31;99927.92;107448;280;97957;-56
2023/10/19 02:55:51;;;;;;;28.50;19.70;;;;;;;-0.04;86.34;99926.54;107454;279;120903;-57
2023/10/19 02:58:34;;;;;;;30.60;19.70;;;;;;;-0.04;86.38;99920.31;107369;280;107437;-52
2023/10/19 03:01:21;;;;;;;29.30;19.10;;;;;;;-0.03;86.42;99918.45;107431;280;114240;-51
2023/10/19 03:03:59;;;;;;;30.40;19.30;;;;;;;-0.01;86.38;99915.83;107456;280;95211;-57
2023/10/19 03:06:38;;;;;;;35.90;20.80;;;;;;;0.04;86.42;99915.61;107463;280;97383;-57
2023/10/19 03:09:15;;;;;;;30.50;19.70;;;;;;;0.06;86.44;99908.27;107471;280;121564;-57
2023/10/19 03:11:59;;;;;;;30.10;20.80;;;;;;;0.09;86.46;99904.70;107488;280;105992;-57
2023/10/19 03:14:47;;;;;;;29.90;19.50;;;;;;;0.07;86.49;99901.68;107460;280;113254;-52
2023/10/19 03:17:31;;;;;;;30.60;20.30;;;;;;;0.07;86.51;99896.48;107439;280;93829;-50
2023/10/19 03:20:11;;;;;;;;;;;;;;;0.07;86.55;99895.98;107470;280;98367;-53
2023/10/19 03:22:48;;;;;;;31.70;20.40;;;;;;;0.04;86.64;99900.33;107459;280;120143;-54
2023/10/19 03:28:18;;;;;;;34.80;21.80;;;;;;;0.06;86.62;99891.48;107431;280;114259;-51
2023/10/19 03:30:59;;;;;;;32.00;21.60;;;;;;;0.06;86.63;99886.89;107385;280;95174;-51
2023/10/19 03:33:40;;;;;;;32.20;21.20;;;;;;;0.06;86.60;99886.36;107464;280;96232;-50
2023/10/19 03:36:17;;;;;;;36.00;22.60;;;;;;;0.05;86.52;99881.47;107410;279;121603;-51
2023/10/19 03:38:53;;;;;;;34.00;21.60;;;;;;;0.05;86.49;99873.73;107412;280;106040;-51
2023/10/19 03:41:35;;;;;;;33.80;21.20;;;;;;;0.03;86.40;99873.86;107458;280;113542;-51
2023/10/19 03:44:19;;;;;;;31.50;22.90;;;;;;;-0.00;86.38;99868.32;107513;280;93426;-56
2023/10/19 03:47:00;;;;;;;34.90;22.20;;;;;;;-0.04;86.39;99863.02;107485;279;96170;-56
2023/10/19 03:49:40;;;;;;;35.80;23.40;;;;;;;-0.10;86.35;99853.02;107499;279;120632;-51
2023/10/19 03:52:30;;;;;;;32.50;22.70;;;;;;;-0.11;86.34;99845.20;107448;280;104302;-53
2023/10/19 03:55:16;;;;;;;33.20;21.80;;;;;;;-0.12;86.42;99839.08;107395;280;114717;-53
2023/10/19 03:57:56;;;;;;;35.30;22.60;;;;;;;-0.13;86.47;99837.95;107504;280;95093;-54
2023/10/19 04:00:34;;;;;;;34.60;21.30;;;;;;;-0.14;86.54;99833.46;107440;280;96747;-54
2023/10/19 04:03:17;;;;;;;36.50;21.80;;;;;;;-0.14;86.61;99824.23;107373;280;120958;-52
2023/10/19 04:06:00;;;;;;;40.00;22.90;;;;;;;-0.13;86.67;99822.23;107471;280;104624;-52
2023/10/19 04:08:40;;;;;;;36.20;23.50;;;;;;;-0.13;86.69;99821.14;107423;280;114872;-51
2023/10/19 04:11:23;;;;;;;33.50;22.10;;;;;;;-0.10;86.74;99816.81;107437;280;92620;-51
2023/10/19 04:14:09;;;;;;;32.70;21.90;;;;;;;-0.10;86.79;99809.85;107494;280;97030;-54
2023/10/19 04:16:53;;;;;;;36.50;23.60;;;;;;;-0.09;86.91;99805.20;107488;280;120426;-54
2023/10/19 04:19:34;;;;;;;31.20;20.90;;;;;;;-0.08;86.85;99805.69;107448;280;105615;-53
2023/10/19 04:22:25;;;;;;;33.00;22.90;;;;;;;-0.10;86.99;99798.54;107436;280;115024;-53
2023/10/19 04:25:06;;;;;;;32.50;20.40;;;;;;;-0.09;87.13;99792.45;107474;280;95414;-53
2023/10/19 04:27:48;;;;;;;32.30;21.60;;;;;;;-0.07;87.22;99794.59;107432;280;97440;-54
2023/10/19 04:30:34;;;;;;;33.70;21.30;;;;;;;-0.04;87.34;99787.09;107434;280;120697;-54
2023/10/19 04:33:10;;;;;;;32.00;20.60;;;;;;;-0.02;87.31;99785.29;107464;280;105304;-57
2023/10/19 04:35:55;;;;;;;32.00;21.30;;;;;;;0.03;87.39;99783.64;107447;280;114704;-57
2023/10/19 04:38:33;;;;;;;35.80;21.80;;;;;;;0.08;87.58;99780.15;107445;280;94121;-55
2023/10/19 04:41:15;;;;;;;33.00;22.90;;;;;;;0.13;87.55;99777.98;107498;280;97988;-58
2023/10/19 04:43:51;;;;;;;34.10;21.20;;;;;;;0.14;87.51;99777.45;107434;280;120534;-54
2023/10/19 04:46:25;;;;;;;34.70;21.80;;;;;;;0.16;87.44;99774.43;107382;280;106388;-55
2023/10/19 04:49:13;;;;;;;36.90;23.90;;;;;;;0.17;87.31;99772.08;107423;280;113411;-55
2023/10/19 04:51:49;;;;;;;39.40;24.40;;;;;;;0.13;87.43;99766.40;107337;280;93479;-54
2023/10/19 04:54:29;;;;;;;39.30;26.00;;;;;;;0.11;87.44;99759.14;107410;280;98137;-53
2023/10/19 04:57:10;;;;;;;42.20;26.40;;;;;;;0.10;87.50;99756.60;107343;280;119165;-50
2023/10/19 04:59:55;;;;;;;41.60;25.40;;;;;;;0.10;87.45;99754.98;107447;280;105030;-54
2023/10/19 05:02:43;;;;;;;42.80;25.10;;;;;;;0.11;87.56;99755.05;107436;280;114428;-52
2023/10/19 05:05:27;;;;;;;35.80;24.40;;;;;;;0.15;87.67;99759.84;107438;280;96266;-52
2023/10/19 05:08:07;;;;;;;34.10;21.90;;;;;;;0.17;87.70;99762.52;107538;280;97097;-53
2023/10/19 05:10:47;;;;;;;36.80;23.90;;;;;;;0.20;87.76;99762.59;107455;280;119113;-53
2023/10/19 05:13:42;;;;;;;33.10;22.70;;;;;;;0.23;87.72;99759.30;107449;280;106072;-56
2023/10/19 05:16:24;;;;;;;34.70;22.80;;;;;;;0.24;87.70;99761.11;107456;280;113905;-53
2023/10/19 05:19:07;;;;;;;33.80;22.50;;;;;;;0.26;87.84;99762.20;107430;280;95123;-52
2023/10/19 05:21:46;;;;;;;35.30;23.30;;;;;;;0.30;87.89;99763.77;107433;280;97925;-51
2023/10/19 05:24:29;;;;;;;34.40;23.60;;;;;;;0.34;87.90;99762.00;107452;280;120796;-52
2023/10/19 05:27:15;;;;;;;35.80;23.90;;;;;;;0.38;87.90;99762.10;107464;280;104209;-53
2023/10/19 05:30:02;;;;;;;35.80;22.80;;;;;;;0.43;87.96;99761.83;107479;280;113634;-57
2023/10/19 05:32:43;;;;;;;34.30;23.00;;;;;;;0.50;87.99;99765.23;107438;280;94161;-54
2023/10/19 05:35:26;;;;;;;39.10;24.60;;;;;;;0.56;88.00;99758.88;107405;280;97716;-54
2023/10/19 05:38:07;;;;;;;37.20;23.40;;;;;;;0.59;88.06;99761.92;107459;280;119073;-52
2023/10/19 05:40:43;;;;;;;39.80;23.90;;;;;;;0.67;88.10;99761.05;107513;280;105824;-53
2023/10/19 05:43:25;;;;;;;36.60;24.70;;;;;;;0.74;88.15;99760.03;107499;279;114288;-57
2023/10/19 05:46:08;;;;;;;41.10;24.90;;;;;;;0.82;88.33;99762.14;107494;280;95638;-56
2023/10/19 05:48:50;;;;;;;37.70;24.20;;;;;;;0.91;88.41;99759.48;107523;280;97322;-56
2023/10/19 05:51:38;;;;;;;34.00;22.50;;;;;;;1.00;88.38;99759.85;107819;280;120174;-57
2023/10/19 05:54:16;;;;;;;35.50;23.00;;;;;;;1.08;88.40;99765.63;107714;280;103339;-54
2023/10/19 05:56:57;;;;;;;37.00;24.80;;;;;;;1.17;88.48;99764.43;107449;280;112793;-52
2023/10/19 05:59:35;;;;;;;35.40;23.70;;;;;;;1.27;88.56;99764.73;107440;280;93846;-50
2023/10/19 06:02:22;;;;;;;33.90;24.10;;;;;;;1.34;88.55;99758.17;107434;280;96987;-51
2023/10/19 06:05:02;;;;;;;36.20;23.80;;;;;;;1.41;88.56;99751.30;107424;280;120077;-52
2023/10/19 06:07:41;;;;;;;39.00;25.80;;;;;;;1.47;88.62;99747.83;107454;280;104923;-52
2023/10/19 06:10:22;;;;;;;34.60;23.70;;;;;;;1.57;88.61;99741.23;107421;280;115455;-53
2023/10/19 06:13:10;;;;;;;37.90;24.00;;;;;;;1.67;88.58;99742.86;107594;279;95195;-57
2023/10/19 06:15:59;;;;;;;40.20;23.80;;;;;;;1.76;88.50;99742.35;108676;280;96347;-58
2023/10/19 06:18:38;;;;;;;38.90;23.40;;;;;;;1.88;88.64;99735.91;108059;280;119097;-55
2023/10/19 06:21:20;;;;;;;39.20;25.00;;;;;;;2.03;88.70;99740.40;107463;280;104924;-55
2023/10/19 06:23:59;;;;;;;41.60;25.80;;;;;;;2.21;88.68;99738.22;107382;280;114104;-53
2023/10/19 06:26:41;;;;;;;37.70;25.60;;;;;;;2.39;88.70;99727.73;107504;280;93375;-54
2023/10/19 06:29:18;;;;;;;42.90;25.70;;;;;;;2.60;88.68;99726.98;107546;280;98182;-54
2023/10/19 06:32:00;;;;;;;43.90;26.40;;;;;;;2.81;88.81;99729.77;107481;279;120616;-53
2023/10/19 06:34:41;;;;;;;41.90;25.90;;;;;;;3.03;88.78;99729.15;107499;280;104682;-53
2023/10/19 06:37:19;;;;;;;42.10;27.00;;;;;;;3.21;88.73;99724.63;107485;280;113739;-53
2023/10/19 06:40:06;;;;;;;39.90;27.10;;;;;;;3.40;88.88;99714.01;107440;280;94780;-56
2023/10/19 06:42:45;;;;;;;41.40;27.20;;;;;;;3.60;88.89;99711.88;107493;280;97168;-52
2023/10/19 06:45:25;;;;;;;37.40;25.40;;;;;;;3.80;88.74;99709.20;107474;280;120908;-51
2023/10/19 06:48:06;;;;;;;37.80;25.00;;;;;;;4.01;88.80;99712.81;107430;280;105595;-54
2023/10/19 06:50:46;;;;;;;36.90;25.50;;;;;;;4.22;88.63;99719.83;107334;280;117433;-54
2023/10/19 06:53:21;;;;;;;38.00;25.60;;;;;;;4.41;88.54;99715.47;107458;279;92624;-52
2023/10/19 06:56:15;;;;;;;36.70;26.50;;;;;;;4.56;88.44;99720.31;107451;279;96779;-51
2023/10/19 06:58:55;;;;;;;39.50;27.30;;;;;;;4.78;88.24;99720.64;107447;280;119730;-57
2023/10/19 07:01:36;;;;;;;38.80;25.50;;;;;;;4.96;88.23;99718.61;107444;280;105347;-56
2023/10/19 07:04:16;;;;;;;39.00;25.30;;;;;;;5.13;87.93;99717.84;107466;280;114431;-51
2023/10/19 07:06:57;;;;;;;37.90;25.50;;;;;;;5.33;87.86;99709.94;107452;280;96211;-52
2023/10/19 07:09:36;;;;;;;40.00;27.10;;;;;;;5.53;87.65;99700.19;107479;279;98405;-63
2023/10/19 07:12:18;;;;;;;44.40;28.20;;;;;;;5.67;86.83;99695.71;107460;280;120696;-57
2023/10/19 07:14:55;;;;;;;40.60;28.40;;;;;;;5.76;86.57;99693.14;107494;280;104932;-56
2023/10/19 07:17:32;;;;;;;47.30;29.90;;;;;;;5.82;86.01;99690.15;107491;280;112418;-54
2023/10/19 07:20:25;;;;;;;39.70;28.90;;;;;;;5.91;85.84;99691.12;107495;280;92516;-57
2023/10/19 07:23:09;;;;;;;45.60;29.10;;;;;;;6.07;85.76;99687.61;107469;280;97525;-54
2023/10/19 07:25:54;;;;;;;41.10;28.90;;;;;;;6.26;85.58;99685.23;107453;280;119725;-53
2023/10/19 07:28:31;;;;;;;39.90;28.00;;;;;;;6.62;85.31;99682.59;107440;280;104768;-56
2023/10/19 07:31:12;;;;;;;41.20;27.90;;;;;;;6.87;85.02;99672.32;107480;279;113661;-56
2023/10/19 07:33:59;;;;;;;40.80;26.00;;;;;;;7.24;84.62;99656.73;107437;279;94356;-53
2023/10/19 07:36:35;;;;;;;35.90;24.80;;;;;;;7.54;83.76;99650.65;107446;279;96210;-54
2023/10/19 07:39:19;;;;;;;34.60;23.60;;;;;;;7.80;83.31;99652.67;107439;280;121117;-53
2023/10/19 07:41:58;;;;;;;35.60;23.80;;;;;;;8.01;82.65;99653.62;107445;280;105390;-53
2023/10/19 07:44:35;;;;;;;32.60;23.60;;;;;;;8.22;81.88;99650.32;107461;280;114706;-54
2023/10/19 07:47:13;;;;;;;28.60;20.50;;;;;;;8.58;81.47;99649.39;107407;280;94386;-54
2023/10/19 07:49:52;;;;;;;30.30;20.90;;;;;;;8.78;80.24;99652.38;107466;280;97226;-52
2023/10/19 07:52:35;;;;;;;27.20;21.40;;;;;;;8.84;79.48;99646.23;107461;279;120991;-54
2023/10/19 07:55:11;;;;;;;28.90;20.90;;;;;;;8.82;79.03;99643.80;107409;280;105545;-55
2023/10/19 07:57:46;;;;;;;27.30;21.40;;;;;;;8.67;78.42;99643.20;107428;279;114620;-51
2023/10/19 08:00:25;;;;;;;30.80;21.90;;;;;;;8.62;78.46;99636.50;107419;280;93902;-51
2023/10/19 08:03:08;;;;;;;26.90;20.90;;;;;;;8.54;77.79;99631.09;107480;280;98503;-51
2023/10/19 08:05:44;;;;;;;30.30;22.80;;;;;;;8.41;77.56;99625.63;107470;279;121240;-51
2023/10/19 08:08:35;;;;;;;27.80;21.20;;;;;;;8.46;77.80;99617.97;107509;279;104838;-56
2023/10/19 08:11:14;;;;;;;31.60;22.00;;;;;;;8.51;77.39;99620.05;107395;280;115028;-57
2023/10/19 08:13:53;;;;;;;32.30;23.10;;;;;;;8.48;77.54;99626.61;107401;280;94492;-57
2023/10/19 08:16:34;;;;;;;30.40;21.60;;;;;;;8.48;77.24;99629.38;107460;280;98762;-57
2023/10/19 08:19:13;;;;;;;32.20;22.00;;;;;;;8.50;77.15;99626.50;107451;280;120806;-50
2023/10/19 08:21:53;;;;;;;32.60;22.30;;;;;;;8.60;77.06;99620.04;107395;280;106535;-51
2023/10/19 08:24:34;;;;;;;30.50;22.90;;;;;;;8.70;76.66;99609.63;107367;280;113833;-56
2023/10/19 08:27:12;;;;;;;27.40;20.30;;;;;;;8.73;76.44;99602.58;107352;280;94681;-57
2023/10/19 08:29:55;;;;;;;29.10;22.00;;;;;;;8.68;75.86;99602.19;107378;280;99283;-53
2023/10/19 08:32:32;;;;;;;28.30;20.70;;;;;;;8.70;75.65;99600.61;107399;280;120208;-55
2023/10/19 08:35:12;;;;;;;33.60;22.00;;;;;;;8.87;75.64;99596.03;107431;280;105506;-56
2023/10/19 08:37:56;;;;;;;29.70;22.20;;;;;;;9.00;75.65;99594.73;107380;280;114110;-53
2023/10/19 08:40:34;;;;;;;29.80;21.70;;;;;;;9.12;75.38;99586.13;107331;280;93424;-53
2023/10/19 08:43:13;;;;;;;26.30;20.00;;;;;;;9.22;74.57;99580.85;107452;280;96443;-55
2023/10/19 08:45:49;;;;;;;30.00;20.00;;;;;;;9.21;74.38;99575.28;107345;280;119850;-55
2023/10/19 08:48:29;;;;;;;26.10;20.00;;;;;;;9.41;74.54;99568.69;107423;280;105864;-57
2023/10/19 08:51:12;;;;;;;26.90;19.30;;;;;;;9.60;74.11;99563.23;107453;280;114915;-56
2023/10/19 08:53:56;;;;;;;26.40;19.80;;;;;;;9.52;72.69;99560.50;107388;280;93468;-57
2023/10/19 08:56:33;;;;;;;;;;;;;;;9.36;72.79;99558.02;107428;280;98380;-56
2023/10/19 08:59:16;;;;;;;25.40;19.10;;;;;;;9.35;73.13;99556.72;107516;280;121979;-57
2023/10/19 09:02:06;;;;;;;26.80;19.10;;;;;;;9.40;72.79;99553.99;107470;280;105903;-57
2023/10/19 09:04:51;;;;;;;26.80;19.00;;;;;;;9.37;72.57;99545.66;107413;280;114140;-58
2023/10/19 09:07:35;;;;;;;24.50;17.70;;;;;;;9.38;72.67;99547.15;107355;280;94932;-54
2023/10/19 09:10:15;;;;;;;23.10;18.20;;;;;;;9.42;72.61;99548.08;107412;280;96681;-52
2023/10/19 09:13:07;;;;;;;25.70;17.20;;;;;;;9.59;72.60;99545.67;107411;280;119960;-56
2023/10/19 09:15:48;;;;;;;23.40;16.90;;;;;;;9.74;72.86;99538.20;107421;280;106053;-56
2023/10/19 09:18:30;;;;;;;21.90;17.50;;;;;;;10.11;72.71;99533.94;107430;280;113623;-56
2023/10/19 09:21:13;;;;;;;20.30;15.80;;;;;;;10.47;72.32;99523.13;107405;280;95381;-56
2023/10/19 09:23:54;;;;;;;22.20;16.40;;;;;;;10.80;71.67;99516.45;107444;280;97944;-52
2023/10/19 09:26:37;;;;;;;19.50;15.10;;;;;;;11.09;71.33;99512.16;107437;280;121468;-52
2023/10/19 09:29:28;;;;;;;19.70;14.60;;;;;;;11.35;70.49;99508.70;107485;280;105675;-53
2023/10/19 09:32:08;;;;;;;18.00;13.30;;;;;;;11.45;68.55;99505.28;107460;280;112748;-54
2023/10/19 09:34:52;;;;;;;18.40;13.60;;;;;;;11.43;68.65;99495.80;107475;280;94291;-53
2023/10/19 09:37:35;;;;;;;15.50;12.20;;;;;;;11.28;67.46;99489.11;107471;280;98454;-55
2023/10/19 09:40:17;;;;;;;14.60;10.10;;;;;;;11.13;67.05;99482.27;107446;280;121615;-61
2023/10/19 09:43:07;;;;;;;15.10;10.70;;;;;;;11.10;67.19;99477.18;107401;280;104678;-52
2023/10/19 09:45:54;;;;;;;14.90;11.40;;;;;;;11.12;66.82;99471.39;107475;280;113904;-53
2023/10/19 09:48:35;;;;;;;15.00;11.10;;;;;;;11.12;67.34;99462.11;107365;280;93907;-56
2023/10/19 09:51:12;;;;;;;13.60;10.80;;;;;;;11.17;67.39;99452.73;107448;280;98233;-57
2023/10/19 09:53:52;;;;;;;12.00;9.70;;;;;;;11.09;66.04;99447.08;107406;280;121512;-57
2023/10/19 09:56:35;;;;;;;17.50;10.80;;;;;;;10.90;65.43;99439.85;107420;280;105225;-58
2023/10/19 09:59:28;;;;;;;12.70;10.40;;;;;;;10.86;65.61;99438.49;107426;280;114735;-53
2023/10/19 10:02:22;;;;;;;12.80;9.10;;;;;;;10.98;66.26;99436.73;107406;280;94381;-54
2023/10/19 10:05:04;;;;;;;11.80;9.00;;;;;;;11.08;66.08;99431.48;107508;280;95395;-56
2023/10/19 10:07:46;;;;;;;11.70;10.00;;;;;;;11.11;66.01;99431.30;107406;280;120104;-57
2023/10/19 10:10:25;;;;;;;12.40;9.50;;;;;;;11.04;65.20;99424.31;107520;280;105925;-57
2023/10/19 10:13:31;;;;;;;11.30;9.10;;;;;;;11.00;65.23;99415.73;107405;280;114641;-55
2023/10/19 10:16:09;;;;;;;13.50;9.00;;;;;;;10.99;65.39;99402.19;107425;280;94872;-55
2023/10/19 10:18:51;;;;;;;13.70;8.80;;;;;;;11.03;64.44;99403.20;107471;280;97728;-51
2023/10/19 10:21:36;;;;;;;14.40;9.00;;;;;;;10.96;64.31;99399.95;107448;280;120041;-52
2023/10/19 10:24:16;;;;;;;10.90;9.10;;;;;;;10.87;64.18;99396.60;107449;280;105460;-57
2023/10/19 10:27:09;;;;;;;10.30;8.40;;;;;;;10.90;64.77;99396.11;107421;280;115160;-56
2023/10/19 10:29:59;;;;;;;11.20;8.90;;;;;;;10.93;64.35;99391.77;107424;280;94926;-54
2023/10/19 10:32:55;;;;;;;10.80;7.60;;;;;;;10.84;63.76;99384.09;107496;280;97745;-55
2023/10/19 10:36:11;;;;;;;10.80;8.40;;;;;;;10.79;64.52;99377.80;107427;280;119989;-55
2023/10/19 10:38:50;;;;;;;13.40;9.80;;;;;;;10.86;64.60;99382.26;107429;280;105954;-52
2023/10/19 10:41:29;;;;;;;13.20;9.10;;;;;;;10.83;63.69;99380.86;107435;279;112950;-52
2023/10/19 10:44:11;;;;;;;13.90;9.40;;;;;;;10.68;63.43;99377.83;107431;280;94432;-56
2023/10/19 10:46:52;;;;;;;14.50;9.70;;;;;;;10.68;63.60;99370.02;107454;280;97750;-56
2023/10/19 10:49:28;;;;;;;10.50;8.70;;;;;;;10.77;63.91;99368.84;106947;280;541432;-55
2023/10/19 10:52:08;;;;;;;11.30;9.60;;;;;;;10.80;63.81;99362.42;107432;280;104111;-55
2023/10/19 10:54:46;;;;;;;12.50;9.20;;;;;;;10.83;63.42;99359.17;107447;280;115034;-57
2023/10/19 10:57:26;;;;;;;12.30;9.10;;;;;;;10.79;63.37;99356.20;107479;280;94681;-58
2023/10/19 11:00:16;;;;;;;11.70;8.70;;;;;;;10.77;62.94;99348.31;107452;280;97935;-55
2023/10/19 11:03:07;;;;;;;11.40;9.00;;;;;;;10.74;63.23;99340.02;107589;280;120011;-57
2023/10/19 11:06:00;;;;;;;12.30;8.60;;;;;;;10.74;63.22;99333.70;108283;280;105211;-54
2023/10/19 11:08:38;;;;;;;;;;;;;;;10.76;63.14;99333.60;108083;280;112040;-54
2023/10/19 11:11:13;;;;;;;13.30;9.10;;;;;;;10.70;62.77;99324.04;107455;280;93038;-55
2023/10/19 11:14:13;;;;;;;12.40;9.60;;;;;;;10.68;63.27;99312.13;107424;280;98240;-54
2023/10/19 11:16:54;;;;;;;12.50;8.10;;;;;;;10.70;63.40;99305.84;107424;280;121076;-54
2023/10/19 11:19:45;;;;;;;12.20;9.20;;;;;;;10.74;63.19;99308.50;107472;280;105305;-52
2023/10/19 11:22:35;;;;;;;14.10;9.00;;;;;;;10.75;62.90;99300.48;107337;279;114848;-52
2023/10/19 11:25:29;;;;;;;11.00;8.90;;;;;;;10.85;63.14;99300.05;107381;280;93184;-54
2023/10/19 11:28:20;;;;;;;13.10;9.40;;;;;;;10.96;63.36;99292.36;107420;280;97858;-51
2023/10/19 11:31:21;;;;;;;12.90;9.00;;;;;;;11.02;63.15;99280.80;107397;280;120232;-52
2023/10/19 11:34:01;;;;;;;12.20;9.10;;;;;;;11.10;63.15;99282.02;107480;280;103806;-55
2023/10/19 11:36:40;;;;;;;11.60;8.90;;;;;;;11.06;62.58;99280.77;107421;279;113086;-54
2023/10/19 11:39:15;;;;;;;12.80;8.70;;;;;;;11.02;62.67;99277.06;107460;280;94829;-52
2023/10/19 11:41:52;;;;;;;13.80;9.40;;;;;;;11.02;62.83;99273.06;107498;280;98371;-53
2023/10/19 11:44:31;;;;;;;11.90;8.10;;;;;;;11.01;62.62;99273.75;107477;280;119201;-53
2023/10/19 11:47:13;;;;;;;13.90;8.90;;;;;;;10.95;62.73;99267.59;107483;280;104249;-53
2023/10/19 11:49:53;;;;;;;14.30;8.90;;;;;;;10.97;62.70;99260.92;107452;280;113929;-53
2023/10/19 11:52:30;;;;;;;10.70;8.30;;;;;;;10.93;62.44;99255.39;107360;280;95369;-53
2023/10/19 11:55:09;;;;;;;11.00;8.40;;;;;;;10.92;62.56;99254.06;107320;280;100126;-52
2023/10/19 11:57:51;;;;;;;13.80;9.20;;;;;;;10.85;62.05;99246.44;107429;280;119477;-54
2023/10/19 12:00:37;;;;;;;12.00;9.20;;;;;;;10.83;62.14;99251.77;107401;280;105135;-54
2023/10/19 12:03:21;;;;;;;12.60;8.90;;;;;;;10.84;62.60;99259.86;107405;280;113998;-52
2023/10/19 12:05:56;;;;;;;13.00;8.80;;;;;;;10.89;62.99;99257.33;107456;279;93409;-52
2023/10/19 12:08:30;;;;;;;12.30;8.30;;;;;;;10.96;63.15;99257.99;107499;280;97608;-52
2023/10/19 12:11:15;;;;;;;11.80;8.70;;;;;;;10.97;62.77;99265.16;107423;280;121970;-52
2023/10/19 12:13:54;;;;;;;11.70;8.40;;;;;;;10.97;62.20;99265.46;107479;280;105526;-53
2023/10/19 12:16:34;;;;;;;12.50;9.20;;;;;;;10.97;62.53;99259.17;107485;279;113926;-52
2023/10/19 12:19:29;;;;;;;13.10;9.10;;;;;;;11.05;62.66;99258.50;107464;280;93194;-51
2023/10/19 12:22:08;;;;;;;12.20;9.10;;;;;;;11.11;62.62;99259.73;107520;280;98552;-53
2023/10/19 12:24:51;;;;;;;12.80;8.80;;;;;;;11.14;62.23;99256.64;107524;280;120612;-54
2023/10/19 12:27:28;;;;;;;15.00;9.70;;;;;;;11.12;61.70;99255.35;107532;280;105742;-54
2023/10/19 12:30:16;;;;;;;10.70;9.60;;;;;;;11.10;61.78;99251.64;107522;280;113831;-54